Seattle, WA (98109)

2:48 PM PDT on March 29, 2015 (GMT -0700)
Queen Anne Southern Exposure | | Change Station
CLOSE
Current Station
Personal Weather Station
Location: Seattle, WA
Elevation: 217 ft
Nearby Weather Stations

Elev 217 ft 47.63 °N, 122.35 °W | Updated 3 minutes ago

Overcast
Overcast
57.9 °F
Feels Like 57.9 °F
N
9.0
Wind Variable Wind from SSW

Today
High -- | Low -- °F
--% Chance of Precip.
Yesterday
High -- | Low -- °F
Precip. -- in
6:54 AM 7:34 PM
Waxing Gibbous, 74% visible
Pressure 30.23 in
Visibility 10.0 miles
Clouds Scattered Clouds 5000 ft
Mostly Cloudy 9000 ft
Dew Point 41 °F
Humidity 54%
Rainfall 0.00 in
Snow Depth Not available.
UV 3 out of 12
Pollen 10.00 out of 12
Air Quality Not available.
Flu Activity Not available.
METAR KBFI 292053Z 20009G16KT 10SM SCT050 BKN090 16/06 A3023 RMK AO2 SLP236 T01610056 58008

More Conditions Fewer Conditions

Pressure 30.23 in
Visibility 10.0 miles
Clouds Scattered Clouds 5000 ft
Mostly Cloudy 9000 ft
Dew Point 41 °F
Humidity 54%
Rainfall 0.00 in
Snow Depth Not available.
UV 3 out of 12
Pollen 10.00 out of 12
Air Quality Not available.
Flu Activity Not available.
METAR KBFI 292053Z 20009G16KT 10SM SCT050 BKN090 16/06 A3023 RMK AO2 SLP236 T01610056 58008

More Conditions Fewer Conditions

10-Day Weather Forecast

Almanac

Astronomy

Mar. 29, 2015 Rise Set
Actual Time
Civil Twilight
Nautical Twilight
Astronomical Twilight
Moon
Length of Visible Light
Length of Day
Tomorrow will be .
, % of the Moon is Illuminated

Today's Extremes

State Highs State Lows

Community

WunderPhotos

Upload Photos

1,809,364 photos uploaded!

WunderBlogs® & News

Nearby

Air Quality

  Air Quality AQ Index Pollutant
Not available.

Snow Depth

Station Depth Elevation

Earthquake Activity

City Distance Mag. Time & Date
Minimum magnitude displayed is 2.5.

Coastal Water Temperatures

Place Temperature

Stations

Nearby Weather Stations

Station Location Temp. Windchill Dew Point Humidity Wind Precip. Elev Updated Type